Loftus, United Kingdom
Current Conditions -  °F | °C
As of 8:20 PM on Thursday 18 Dec 2014 (Local Time) from EGNV Reporting Station
Few Clouds Few Clouds  
Wind Chill: 52°   Ceiling: Unl
Heat Index: 52°   Visibility: 6mi
Dew Point: 43°   Wind: 20mph
Humidity: 71%   Direction: 250°WSW
Pressure: 29.5"   Gusts: NA
Location:  54.56°N, 0.89°W
Report Text: EGNV 182020Z 25017KT 220V280 9999 FEW025 11/06 Q0999
Loading
Personal Weather Stations






























Interactive Weather Map New forecast layout! Learn more

10-Day Weather Forecast

Advertisements
Track Severe Weather on mobile